Time;durP1;ratioP1;P1;durP2;ratioP2;P2;SDS_P1;SDS_P2;PMS_P1;PMS_P2;Temp;Humidity;BMP_temperature;BMP_pressure;BME280_temperature;BME280_humidity;BME280_pressure;Samples;Min_cycle;Max_cycle;Signal;HPM_P1;HPM_P2
2022/04/04 00:02:19;;;;;;;3.67;2.10;;;2.40;97.70;;;;;;5089558;28;20229;-83
2022/04/04 00:04:46;;;;;;;2.57;1.60;;;2.40;97.70;;;;;;5071984;28;20226;-82
2022/04/04 00:07:13;;;;;;;3.73;1.90;;;2.50;97.70;;;;;;5072905;28;20241;-83
2022/04/04 00:09:40;;;;;;;4.00;2.20;;;2.40;97.60;;;;;;5091149;28;20234;-82
2022/04/04 00:12:07;;;;;;;6.80;2.27;;;2.40;97.70;;;;;;5075051;28;20237;-82
2022/04/04 00:14:34;;;;;;;4.90;1.90;;;2.40;97.70;;;;;;5091374;28;20237;-85
2022/04/04 00:17:01;;;;;;;4.13;1.90;;;2.40;97.60;;;;;;5072863;28;20273;-84
2022/04/04 00:19:29;;;;;;;8.77;2.53;;;2.40;97.60;;;;;;5089310;28;20848;-83
2022/04/04 00:21:57;;;;;;;3.40;1.87;;;2.40;97.80;;;;;;5071845;28;20310;-84
2022/04/04 00:24:24;;;;;;;3.07;1.83;;;2.40;97.70;;;;;;5070588;28;20231;-83
2022/04/04 00:26:51;;;;;;;4.03;1.87;;;2.50;97.70;;;;;;5089656;28;20763;-83
2022/04/04 00:29:18;;;;;;;3.90;1.87;;;2.40;97.70;;;;;;5071259;28;20741;-83
2022/04/04 00:31:45;;;;;;;6.63;2.13;;;2.40;97.70;;;;;;5073491;28;20226;-83
2022/04/04 00:34:12;;;;;;;4.20;2.30;;;2.50;97.60;;;;;;5072885;28;20226;-83
2022/04/04 00:36:40;;;;;;;5.37;1.80;;;2.50;97.60;;;;;;5073281;28;20226;-82
2022/04/04 00:39:07;;;;;;;4.73;1.93;;;2.50;97.70;;;;;;5092455;28;20306;-84
2022/04/04 00:41:34;;;;;;;5.23;2.53;;;2.50;97.70;;;;;;5070108;28;20309;-84
2022/04/04 00:44:00;;;;;;;3.20;1.77;;;2.50;97.70;;;;;;5072354;28;20230;-83
2022/04/04 00:46:27;;;;;;;7.07;2.20;;;2.50;97.70;;;;;;5073329;28;20254;-83
2022/04/04 00:48:54;;;;;;;4.23;2.17;;;2.50;97.80;;;;;;5070759;28;20294;-83
2022/04/04 00:51:20;;;;;;;6.37;2.10;;;2.50;97.80;;;;;;5070014;28;20643;-84
2022/04/04 00:53:49;;;;;;;4.80;2.20;;;2.50;97.80;;;;;;5089834;28;20264;-84
2022/04/04 00:56:17;;;;;;;4.47;2.40;;;2.50;97.80;;;;;;5089895;28;20500;-84
2022/04/04 00:58:44;;;;;;;3.70;2.20;;;2.50;97.70;;;;;;5072149;28;20227;-84
2022/04/04 01:01:11;;;;;;;4.00;2.27;;;2.50;97.70;;;;;;5070728;28;20235;-83
2022/04/04 01:03:37;;;;;;;4.17;2.20;;;2.50;97.70;;;;;;5089109;28;20804;-84
2022/04/04 01:06:04;;;;;;;4.83;2.47;;;2.50;97.60;;;;;;5089571;28;20227;-85
2022/04/04 01:08:31;;;;;;;4.97;2.40;;;2.50;97.70;;;;;;5070938;28;20284;-85
2022/04/04 01:10:59;;;;;;;4.40;2.37;;;2.50;97.70;;;;;;5071157;28;20314;-85
2022/04/04 01:13:26;;;;;;;5.70;2.53;;;2.50;97.70;;;;;;5070430;28;20308;-85
2022/04/04 01:15:53;;;;;;;4.07;2.23;;;2.50;97.70;;;;;;5071517;28;20230;-84
2022/04/04 01:18:20;;;;;;;4.53;2.40;;;2.50;97.80;;;;;;5088317;28;20230;-84
2022/04/04 01:20:46;;;;;;;5.57;2.80;;;2.50;97.70;;;;;;5073650;28;20269;-80
2022/04/04 01:23:14;;;;;;;4.07;2.17;;;2.50;97.80;;;;;;5072308;28;20248;-80
2022/04/04 01:25:42;;;;;;;7.27;2.83;;;2.50;97.80;;;;;;5090270;28;20319;-81
2022/04/04 01:28:09;;;;;;;4.67;2.57;;;2.40;97.80;;;;;;5093830;28;20229;-81
2022/04/04 01:30:36;;;;;;;5.97;2.50;;;2.40;97.80;;;;;;5076249;28;20309;-81
2022/04/04 01:33:03;;;;;;;4.83;2.50;;;2.40;97.90;;;;;;5074763;28;20873;-81
2022/04/04 01:35:30;;;;;;;4.30;2.53;;;2.40;97.90;;;;;;5070291;28;20223;-84
2022/04/04 01:37:57;;;;;;;5.03;2.53;;;2.40;98.00;;;;;;5069667;28;20234;-84
2022/04/04 01:40:24;;;;;;;5.00;2.80;;;2.40;98.10;;;;;;5069286;28;20243;-83
2022/04/04 01:42:55;;;;;;;6.63;2.90;;;2.30;98.00;;;;;;5087789;28;20604;-83
2022/04/04 01:48:05;;;;;;;5.57;2.83;;;2.30;98.10;;;;;;5069302;28;20843;-84
2022/04/04 01:50:32;;;;;;;3.13;2.70;;;2.30;98.10;;;;;;5068608;28;20230;-85
2022/04/04 01:53:25;;;;;;;6.03;3.20;;;2.20;97.90;;;;;;5069447;28;20481;-84
2022/04/04 01:55:47;;;;;;;5.17;3.20;;;2.20;97.90;;;;;;5087897;28;20238;-83
2022/04/04 01:58:16;;;;;;;5.03;3.00;;;2.20;97.90;;;;;;5069735;28;20229;-83
2022/04/04 02:00:43;;;;;;;6.87;2.97;;;2.10;98.00;;;;;;5069080;28;20227;-83
2022/04/04 02:03:10;;;;;;;4.47;2.70;;;2.10;98.00;;;;;;5086516;28;20219;-82
2022/04/04 02:05:37;;;;;;;8.67;3.10;;;2.10;98.00;;;;;;5089834;28;20252;-82
2022/04/04 02:08:04;;;;;;;7.33;3.33;;;2.10;98.10;;;;;;5071703;28;20240;-82
2022/04/04 02:10:31;;;;;;;5.30;3.23;;;2.00;98.10;;;;;;5072183;28;20316;-83
2022/04/04 02:12:58;;;;;;;6.33;2.90;;;2.00;98.10;;;;;;5072077;28;20611;-82
2022/04/04 02:15:26;;;;;;;4.60;2.97;;;2.00;98.20;;;;;;5072600;28;20231;-81
2022/04/04 02:17:54;;;;;;;4.80;3.13;;;2.10;98.30;;;;;;5072431;28;20317;-83
2022/04/04 02:20:21;;;;;;;6.70;3.57;;;2.00;98.20;;;;;;5089601;28;20282;-83
2022/04/04 02:22:48;;;;;;;5.23;3.50;;;1.90;98.10;;;;;;5069416;28;20315;-83
2022/04/04 02:25:15;;;;;;;5.17;3.23;;;1.90;98.20;;;;;;5087687;28;20314;-83
2022/04/04 02:27:42;;;;;;;7.73;3.10;;;1.90;98.30;;;;;;5071215;28;20226;-83
2022/04/04 02:30:10;;;;;;;6.40;2.53;;;1.90;98.40;;;;;;5070493;28;20687;-82
2022/04/04 02:32:38;;;;;;;6.70;3.03;;;1.80;98.40;;;;;;5073260;28;20227;-82
2022/04/04 02:35:07;;;;;;;6.37;3.13;;;1.80;98.40;;;;;;5089940;28;20226;-83
2022/04/04 02:37:34;;;;;;;6.67;3.13;;;1.70;98.40;;;;;;5072746;28;20239;-82
2022/04/04 02:40:01;;;;;;;9.57;3.60;;;1.80;98.40;;;;;;5088410;28;20227;-82
2022/04/04 02:42:28;;;;;;;4.20;3.10;;;1.70;98.40;;;;;;5068278;28;20246;-82
2022/04/04 02:44:55;;;;;;;8.20;3.50;;;1.80;98.70;;;;;;5068964;28;20257;-83
2022/04/04 02:47:22;;;;;;;6.63;3.50;;;1.70;98.60;;;;;;5070620;28;20635;-83
2022/04/04 02:49:50;;;;;;;5.30;3.30;;;1.70;98.60;;;;;;5069478;28;20230;-83
2022/04/04 02:52:16;;;;;;;5.03;2.90;;;1.70;98.80;;;;;;5068598;28;20702;-83
2022/04/04 02:54:43;;;;;;;7.67;3.40;;;1.70;98.70;;;;;;5068906;28;20774;-83
2022/04/04 02:57:11;;;;;;;4.30;2.93;;;1.70;98.70;;;;;;5069365;28;20221;-80
2022/04/04 02:59:37;;;;;;;4.43;3.40;;;1.70;98.70;;;;;;5074210;28;20720;-81
2022/04/04 03:02:05;;;;;;;5.33;3.23;;;1.70;98.80;;;;;;5073983;28;20863;-82
2022/04/04 03:04:31;;;;;;;6.03;3.47;;;1.70;98.80;;;;;;5089025;28;20238;-82
2022/04/04 03:07:00;;;;;;;8.23;3.70;;;1.70;98.80;;;;;;5073319;28;20233;-83
2022/04/04 03:09:26;;;;;;;7.20;3.10;;;1.70;99.00;;;;;;5091225;28;20238;-83
2022/04/04 03:11:53;;;;;;;3.63;3.00;;;1.70;98.80;;;;;;5090850;28;20242;-84
2022/04/04 03:14:20;;;;;;;4.47;2.97;;;1.70;98.90;;;;;;5089913;28;20317;-84
2022/04/04 03:16:47;;;;;;;5.53;3.77;;;1.70;98.80;;;;;;5073020;28;20318;-84
2022/04/04 03:19:13;;;;;;;5.33;3.40;;;1.70;98.80;;;;;;5089008;28;20298;-84
2022/04/04 03:21:40;;;;;;;6.00;3.03;;;1.70;98.80;;;;;;5070758;28;20223;-84
2022/04/04 03:24:09;;;;;;;7.10;3.40;;;1.70;98.80;;;;;;5070483;28;20240;-84
2022/04/04 03:26:35;;;;;;;4.07;2.97;;;1.70;98.80;;;;;;5070799;28;20313;-83
2022/04/04 03:29:02;;;;;;;6.10;3.23;;;1.70;98.80;;;;;;5091361;28;20223;-84
2022/04/04 03:31:29;;;;;;;6.03;3.30;;;1.70;98.80;;;;;;5090118;28;20238;-83
2022/04/04 03:33:56;;;;;;;6.30;3.20;;;1.70;98.80;;;;;;5073532;28;20237;-84
2022/04/04 03:36:23;;;;;;;5.63;3.10;;;1.80;98.80;;;;;;5073125;28;20368;-86
2022/04/04 03:38:50;;;;;;;5.03;3.30;;;1.70;98.70;;;;;;5073666;28;20605;-84
2022/04/04 03:41:18;;;;;;;4.27;3.20;;;1.80;98.60;;;;;;5072019;28;20230;-84
2022/04/04 03:43:45;;;;;;;4.93;3.40;;;1.80;98.60;;;;;;5072419;28;20278;-84
2022/04/04 03:46:11;;;;;;;4.10;3.00;;;1.80;98.50;;;;;;5090773;28;20222;-85
2022/04/04 03:48:38;;;;;;;8.23;3.50;;;1.80;98.70;;;;;;5073393;28;20239;-86
2022/04/04 03:51:06;;;;;;;7.60;3.20;;;1.80;98.60;;;;;;5074310;28;20321;-84
2022/04/04 03:53:33;;;;;;;7.00;3.10;;;1.80;98.60;;;;;;5073343;28;20274;-83
2022/04/04 03:56:00;;;;;;;4.63;3.10;;;1.80;98.60;;;;;;5074489;28;20232;-84
2022/04/04 03:58:28;;;;;;;6.20;3.00;;;1.80;98.60;;;;;;5073427;28;20221;-83
2022/04/04 04:00:55;;;;;;;5.20;3.17;;;1.80;98.50;;;;;;5073548;28;20292;-81
2022/04/04 04:03:22;;;;;;;5.03;3.10;;;1.90;98.50;;;;;;5073373;28;20309;-82
2022/04/04 04:05:49;;;;;;;14.90;3.40;;;1.90;98.50;;;;;;5073866;28;20256;-82
2022/04/04 04:08:15;;;;;;;4.70;3.00;;;2.00;98.50;;;;;;5091817;28;20224;-82
2022/04/04 04:10:42;;;;;;;4.47;3.10;;;2.00;98.40;;;;;;5093209;28;20276;-81
2022/04/04 04:13:09;;;;;;;4.80;2.93;;;2.00;98.40;;;;;;5095115;28;20274;-81
2022/04/04 04:15:37;;;;;;;3.43;2.57;;;2.00;98.30;;;;;;5077977;28;20243;-80
2022/04/04 04:18:04;;;;;;;3.97;3.00;;;2.00;98.30;;;;;;5095058;28;20241;-81
2022/04/04 04:20:32;;;;;;;5.57;3.10;;;2.10;98.20;;;;;;5075678;28;20240;-83
2022/04/04 04:23:01;;;;;;;4.63;2.93;;;2.10;98.10;;;;;;5071754;28;20249;-79
2022/04/04 04:25:30;;;;;;;4.73;2.87;;;2.10;98.10;;;;;;5071985;28;20226;-79
2022/04/04 04:27:59;;;;;;;3.60;2.90;;;2.10;98.00;;;;;;5089926;28;20259;-78
2022/04/04 04:30:26;;;;;;;4.40;3.10;;;2.10;98.00;;;;;;5071906;28;20319;-79
2022/04/04 04:32:54;;;;;;;6.03;2.83;;;2.20;98.00;;;;;;5072147;28;20221;-80
2022/04/04 04:35:22;;;;;;;4.93;3.17;;;2.20;97.90;;;;;;5072793;28;20238;-77
2022/04/04 04:37:51;;;;;;;6.17;3.40;;;2.20;97.90;;;;;;5097524;28;20245;-79
2022/04/04 04:40:18;;;;;;;11.93;3.10;;;2.20;97.90;;;;;;5096081;28;20223;-78
2022/04/04 04:42:47;;;;;;;4.80;2.90;;;2.20;97.80;;;;;;5088686;28;20698;-79
2022/04/04 04:45:14;;;;;;;3.40;2.47;;;2.30;97.80;;;;;;5071947;28;20228;-79
2022/04/04 04:47:42;;;;;;;5.13;3.27;;;2.30;97.70;;;;;;5090123;28;20287;-81
2022/04/04 04:50:12;;;;;;;3.67;2.90;;;2.30;97.60;;;;;;5092208;28;20226;-81
2022/04/04 04:52:40;;;;;;;3.83;2.93;;;2.30;97.60;;;;;;5073650;28;20223;-82
2022/04/04 04:55:08;;;;;;;3.57;2.80;;;2.40;97.50;;;;;;5073806;28;20703;-81
2022/04/04 04:57:35;;;;;;;5.20;3.10;;;2.40;97.40;;;;;;5073522;28;20597;-81
2022/04/04 05:00:04;;;;;;;3.37;2.80;;;2.40;97.40;;;;;;5092034;28;20299;-82
2022/04/04 05:02:31;;;;;;;5.70;3.60;;;2.40;97.40;;;;;;5091218;28;20701;-81
2022/04/04 05:04:57;;;;;;;3.90;3.50;;;2.50;97.40;;;;;;5073701;28;20309;-81
2022/04/04 05:07:25;;;;;;;6.37;3.30;;;2.50;97.40;;;;;;5090793;28;20562;-80
2022/04/04 05:09:52;;;;;;;5.00;3.33;;;2.50;97.60;;;;;;5090153;28;20223;-82
2022/04/04 05:12:19;;;;;;;4.80;3.40;;;2.50;97.20;;;;;;5073091;28;20223;-80
2022/04/04 05:14:45;;;;;;;4.50;3.60;;;2.60;97.20;;;;;;5090658;28;20232;-81
2022/04/04 05:17:12;;;;;;;5.60;3.40;;;2.60;97.20;;;;;;5069056;28;20234;-81
2022/04/04 05:19:38;;;;;;;6.77;3.60;;;2.60;97.10;;;;;;5084575;28;20234;-84
2022/04/04 05:22:07;;;;;;;5.27;3.97;;;2.60;97.00;;;;;;5071731;28;20892;-84
2022/04/04 05:24:38;;;;;;;4.87;3.90;;;2.60;97.40;;;;;;5072879;28;20805;-84
2022/04/04 05:27:05;;;;;;;5.50;4.30;;;2.70;97.00;;;;;;5071448;28;20219;-85
2022/04/04 05:29:32;;;;;;;6.60;4.50;;;2.60;96.90;;;;;;5089591;28;20325;-84
2022/04/04 05:31:59;;;;;;;6.40;4.37;;;2.70;97.00;;;;;;5089830;28;20299;-85
2022/04/04 05:34:27;;;;;;;6.20;4.63;;;2.70;97.00;;;;;;5070847;28;20229;-84
2022/04/04 05:36:54;;;;;;;8.20;4.53;;;2.80;97.10;;;;;;5072292;28;20296;-85
2022/04/04 05:39:21;;;;;;;6.17;4.53;;;2.80;97.00;;;;;;5071199;28;20290;-85
2022/04/04 05:41:52;;;;;;;6.67;5.10;;;2.80;96.90;;;;;;5072545;28;20237;-83
2022/04/04 05:44:19;;;;;;;7.53;4.77;;;2.90;97.00;;;;;;5071108;28;20305;-84
2022/04/04 05:46:46;;;;;;;14.00;7.40;;;2.90;97.00;;;;;;5071383;28;20297;-85
2022/04/04 05:49:13;;;;;;;8.87;5.80;;;2.90;97.00;;;;;;5071215;28;20228;-85
2022/04/04 05:51:40;;;;;;;6.70;5.60;;;2.90;97.00;;;;;;5071183;28;20710;-85
2022/04/04 05:54:07;;;;;;;8.47;5.27;;;3.00;97.00;;;;;;5071862;28;20387;-85
2022/04/04 05:56:35;;;;;;;7.27;5.87;;;3.10;97.20;;;;;;5072294;28;20230;-84
2022/04/04 05:59:03;;;;;;;7.17;5.63;;;3.00;97.10;;;;;;5071744;28;20229;-85
2022/04/04 06:01:30;;;;;;;8.43;6.70;;;3.10;97.10;;;;;;5089426;28;20237;-84
2022/04/04 06:03:57;;;;;;;8.77;6.60;;;3.10;97.10;;;;;;5071784;28;20706;-85
2022/04/04 06:06:24;;;;;;;9.03;6.70;;;3.20;97.20;;;;;;5071146;28;20252;-84
2022/04/04 06:08:51;;;;;;;10.17;6.97;;;3.20;97.20;;;;;;5071936;28;20258;-84
2022/04/04 06:11:18;;;;;;;11.60;7.30;;;3.30;97.10;;;;;;5070704;28;20304;-84
2022/04/04 06:13:45;;;;;;;10.27;7.30;;;3.30;97.10;;;;;;5071678;28;20228;-85
2022/04/04 06:16:14;;;;;;;9.83;7.43;;;3.40;97.10;;;;;;5071350;28;20592;-84
2022/04/04 06:18:41;;;;;;;14.17;8.10;;;3.30;97.00;;;;;;5070974;28;20228;-84
2022/04/04 06:21:08;;;;;;;9.60;7.20;;;3.40;97.10;;;;;;5070925;28;20223;-85
2022/04/04 06:23:36;;;;;;;11.77;7.80;;;3.40;97.20;;;;;;5070625;28;20248;-84
2022/04/04 06:26:04;;;;;;;10.33;8.27;;;3.40;97.20;;;;;;5071060;28;20698;-83
2022/04/04 06:28:31;;;;;;;14.40;8.90;;;3.40;97.40;;;;;;5088751;28;20240;-84
2022/04/04 06:30:59;;;;;;;10.97;8.50;;;3.40;97.60;;;;;;5050278;28;20251;-85
2022/04/04 06:33:27;;;;;;;11.77;9.30;;;3.40;97.70;;;;;;5049574;28;20237;-85
2022/04/04 06:35:54;;;;;;;12.07;9.20;;;3.40;97.90;;;;;;5049205;28;20369;-84
2022/04/04 06:38:21;;;;;;;12.53;9.33;;;3.30;97.80;;;;;;5049265;28;20235;-85
2022/04/04 06:40:49;;;;;;;11.70;9.27;;;3.30;98.10;;;;;;5067977;28;20232;-85
2022/04/04 06:43:17;;;;;;;11.37;8.97;;;3.30;98.30;;;;;;5081762;28;20296;-85
2022/04/04 06:45:44;;;;;;;12.60;9.43;;;3.30;98.40;;;;;;5088087;28;20252;-85
2022/04/04 06:48:11;;;;;;;13.00;9.90;;;3.30;98.40;;;;;;5069419;28;20235;-85
2022/04/04 06:50:40;;;;;;;14.10;9.27;;;3.20;98.40;;;;;;5070652;28;20231;-84
2022/04/04 06:53:07;;;;;;;12.17;9.90;;;3.20;98.60;;;;;;5069451;28;20243;-84
2022/04/04 06:55:33;;;;;;;12.63;9.47;;;3.20;98.80;;;;;;5070874;28;20311;-84
2022/04/04 06:58:00;;;;;;;13.17;9.33;;;3.10;98.90;;;;;;5070303;28;20240;-85
2022/04/04 07:00:27;;;;;;;12.40;9.53;;;3.10;99.00;;;;;;5069411;28;20699;-84
2022/04/04 07:02:55;;;;;;;12.77;10.10;;;3.10;99.10;;;;;;5072550;28;20246;-84
2022/04/04 07:05:22;;;;;;;14.37;10.03;;;3.00;99.00;;;;;;5091827;28;20228;-84
2022/04/04 07:07:50;;;;;;;13.93;10.23;;;3.00;99.20;;;;;;5073196;28;20261;-83
2022/04/04 07:10:17;;;;;;;12.93;10.50;;;3.00;99.40;;;;;;5072168;28;20261;-84
2022/04/04 07:12:44;;;;;;;12.77;10.20;;;3.00;99.50;;;;;;5072967;28;20311;-83
2022/04/04 07:15:12;;;;;;;12.67;9.73;;;3.00;99.50;;;;;;5071861;28;20524;-83
2022/04/04 07:17:39;;;;;;;13.70;10.17;;;2.90;99.80;;;;;;5072444;28;20230;-83
2022/04/04 07:20:07;;;;;;;12.37;10.13;;;2.90;99.70;;;;;;5072684;28;20238;-82
2022/04/04 07:22:37;;;;;;;13.53;10.63;;;2.90;99.80;;;;;;5071857;28;20226;-83
2022/04/04 07:25:08;;;;;;;15.33;10.20;;;2.90;99.90;;;;;;5072370;28;20677;-83
2022/04/04 07:27:35;;;;;;;12.83;11.03;;;2.90;99.90;;;;;;5083901;28;20318;-83
2022/04/04 07:30:01;;;;;;;18.93;10.97;;;2.90;99.90;;;;;;5090985;28;20221;-83
2022/04/04 07:32:28;;;;;;;16.37;11.30;;;2.80;99.90;;;;;;5093742;28;20668;-81
2022/04/04 07:34:55;;;;;;;11.50;9.93;;;2.90;99.90;;;;;;5094220;28;20231;-81
2022/04/04 07:37:22;;;;;;;11.30;9.57;;;2.90;99.90;;;;;;5098909;28;20272;-82
2022/04/04 07:39:48;;;;;;;11.73;9.83;;;2.80;99.90;;;;;;5094581;28;20877;-81
2022/04/04 07:42:16;;;;;;;12.30;9.90;;;2.80;99.90;;;;;;5069537;28;20234;-81
2022/04/04 07:44:43;;;;;;;12.87;10.20;;;2.80;99.90;;;;;;5076941;28;20317;-81
2022/04/04 07:47:10;;;;;;;13.40;10.67;;;2.80;99.90;;;;;;5093828;28;20229;-81
2022/04/04 07:49:37;;;;;;;13.53;10.80;;;2.80;99.90;;;;;;5093173;28;20233;-80
2022/04/04 07:52:03;;;;;;;11.70;9.47;;;2.80;99.90;;;;;;5075028;28;20239;-81
2022/04/04 07:54:30;;;;;;;11.17;9.83;;;2.80;99.90;;;;;;5074103;28;20225;-81
2022/04/04 07:56:57;;;;;;;11.70;9.83;;;2.70;99.90;;;;;;5089428;28;20292;-81
2022/04/04 07:59:26;;;;;;;12.20;10.10;;;2.70;99.90;;;;;;5069134;28;20276;-80
2022/04/04 08:01:53;;;;;;;14.03;10.17;;;2.70;99.90;;;;;;5093348;28;20237;-80
2022/04/04 08:04:19;;;;;;;13.27;10.60;;;2.70;99.90;;;;;;5073736;28;20964;-80
2022/04/04 08:06:46;;;;;;;13.73;11.47;;;2.70;99.90;;;;;;5074744;28;20237;-81
2022/04/04 08:09:13;;;;;;;14.47;11.03;;;2.70;99.90;;;;;;5092511;28;20324;-80
2022/04/04 08:11:40;;;;;;;12.07;10.40;;;2.70;99.90;;;;;;5093151;28;20295;-80
2022/04/04 08:14:08;;;;;;;11.90;9.97;;;2.70;99.90;;;;;;5073643;28;20234;-80
2022/04/04 08:16:36;;;;;;;12.93;10.67;;;2.80;99.90;;;;;;5075016;28;20235;-80
2022/04/04 08:19:03;;;;;;;13.50;11.20;;;2.70;99.90;;;;;;5093383;28;20224;-80
2022/04/04 08:21:30;;;;;;;11.87;10.27;;;2.70;99.90;;;;;;5074509;28;20234;-81
2022/04/04 08:23:58;;;;;;;12.77;10.90;;;2.70;99.90;;;;;;5074490;28;20763;-81
2022/04/04 08:26:25;;;;;;;12.00;10.40;;;2.70;99.90;;;;;;5092817;28;20283;-80
2022/04/04 08:28:52;;;;;;;12.30;10.87;;;2.70;99.90;;;;;;5075227;28;20242;-80
2022/04/04 08:31:19;;;;;;;12.63;10.47;;;2.70;99.90;;;;;;5092513;28;20242;-80
2022/04/04 08:33:48;;;;;;;12.60;10.80;;;2.70;99.90;;;;;;5074856;28;20224;-80
2022/04/04 08:36:16;;;;;;;12.83;11.07;;;2.80;99.90;;;;;;5092331;28;20329;-80
2022/04/04 08:38:43;;;;;;;12.43;10.27;;;2.70;99.90;;;;;;5074741;28;20233;-81
2022/04/04 08:41:10;;;;;;;13.90;10.63;;;2.70;99.90;;;;;;5074309;28;20225;-81
2022/04/04 08:43:39;;;;;;;13.03;10.87;;;2.60;99.90;;;;;;5093379;28;20291;-81
2022/04/04 08:46:07;;;;;;;14.07;10.53;;;2.60;99.90;;;;;;5093200;28;20252;-81
2022/04/04 08:48:35;;;;;;;13.90;10.53;;;2.60;99.90;;;;;;5074877;28;20281;-81
2022/04/04 08:51:03;;;;;;;12.17;10.50;;;2.70;99.90;;;;;;5092013;28;20222;-80
2022/04/04 08:53:30;;;;;;;12.10;10.90;;;2.60;99.90;;;;;;5080240;28;20243;-80
2022/04/04 08:55:57;;;;;;;12.33;10.00;;;2.60;99.90;;;;;;5074695;28;20221;-81
2022/04/04 08:58:25;;;;;;;13.83;10.60;;;2.60;99.90;;;;;;5073325;28;20234;-81
2022/04/04 09:00:52;;;;;;;10.87;9.33;;;2.60;99.90;;;;;;5092293;28;20223;-81
2022/04/04 09:03:22;;;;;;;11.57;10.20;;;2.60;99.90;;;;;;5073536;28;20223;-80
2022/04/04 09:05:53;;;;;;;11.07;9.60;;;2.60;99.90;;;;;;5092218;28;20227;-80
2022/04/04 09:08:23;;;;;;;12.20;9.87;;;2.60;99.90;;;;;;5073041;28;20227;-80
2022/04/04 09:10:54;;;;;;;12.57;9.47;;;2.70;99.90;;;;;;5074442;28;20579;-80
2022/04/04 09:13:23;;;;;;;11.23;9.00;;;2.70;99.90;;;;;;5092472;28;20227;-81
2022/04/04 09:15:55;;;;;;;10.40;9.03;;;2.60;99.90;;;;;;5073623;28;20241;-80
2022/04/04 09:18:46;;;;;;;10.67;8.97;;;2.70;99.90;;;;;;5092278;28;20485;-80
2022/04/04 09:21:14;;;;;;;10.03;8.70;;;2.70;99.90;;;;;;5091976;28;20222;-80
2022/04/04 09:23:56;;;;;;;10.40;8.77;;;2.70;99.90;;;;;;5074518;28;20233;-80
2022/04/04 09:26:28;;;;;;;10.90;8.50;;;2.70;99.90;;;;;;5073653;28;20328;-81
2022/04/04 09:28:55;;;;;;;13.37;9.03;;;2.80;99.90;;;;;;5074371;28;20712;-81
2022/04/04 09:31:23;;;;;;;9.07;8.17;;;2.70;99.90;;;;;;5073784;28;20234;-81
2022/04/04 09:33:50;;;;;;;12.20;8.63;;;2.80;99.90;;;;;;5092164;28;20278;-81
2022/04/04 09:36:17;;;;;;;9.83;8.33;;;2.70;99.90;;;;;;5091848;28;20231;-80
2022/04/04 09:38:54;;;;;;;10.70;8.40;;;2.80;99.90;;;;;;5091708;28;20236;-80
2022/04/04 09:41:24;;;;;;;10.03;8.67;;;2.80;99.90;;;;;;5092010;28;20323;-81
2022/04/04 09:43:52;;;;;;;10.63;7.93;;;2.90;99.90;;;;;;5092369;28;20221;-80
2022/04/04 09:46:19;;;;;;;11.20;7.90;;;2.90;99.90;;;;;;5073348;28;20461;-81
2022/04/04 09:49:11;;;;;;;10.13;8.23;;;2.90;99.90;;;;;;5073694;28;20721;-81
2022/04/04 09:51:46;;;;;;;11.13;7.57;;;2.90;99.90;;;;;;5058935;28;20649;-81
2022/04/04 09:54:17;;;;;;;9.27;7.53;;;2.90;99.90;;;;;;5091523;28;20233;-81
2022/04/04 09:56:47;;;;;;;10.30;7.80;;;2.90;99.90;;;;;;5092908;28;20242;-81
2022/04/04 09:59:16;;;;;;;10.43;7.60;;;2.90;99.90;;;;;;5073914;28;20248;-81
2022/04/04 10:01:45;;;;;;;10.93;7.73;;;2.90;99.90;;;;;;5074115;28;20241;-81
2022/04/04 10:04:13;;;;;;;9.03;7.83;;;2.90;99.90;;;;;;5073695;28;20219;-80
2022/04/04 10:06:42;;;;;;;9.73;8.73;;;3.00;99.90;;;;;;5092419;28;20224;-80
2022/04/04 10:09:10;;;;;;;8.93;7.50;;;2.90;99.90;;;;;;5091512;28;20337;-81
2022/04/04 10:11:39;;;;;;;8.73;7.60;;;2.90;99.90;;;;;;5073347;28;20220;-80
2022/04/04 10:14:07;;;;;;;11.20;9.00;;;2.90;99.90;;;;;;5091789;28;20228;-80
2022/04/04 10:16:36;;;;;;;9.97;7.87;;;2.90;99.90;;;;;;5072732;28;20242;-81
2022/04/04 10:19:02;;;;;;;8.93;7.97;;;2.90;99.90;;;;;;5073330;28;20609;-81
2022/04/04 10:21:29;;;;;;;9.90;8.50;;;2.90;99.90;;;;;;5073292;28;20235;-81
2022/04/04 10:23:59;;;;;;;9.63;7.40;;;2.90;99.90;;;;;;5072588;28;20225;-80
2022/04/04 10:26:29;;;;;;;9.00;7.93;;;2.90;99.90;;;;;;5072344;28;20569;-80
2022/04/04 10:29:14;;;;;;;10.33;8.20;;;2.90;99.90;;;;;;5072370;28;20404;-80
2022/04/04 10:31:46;;;;;;;9.93;7.90;;;2.90;99.90;;;;;;5089888;28;20283;-80
2022/04/04 10:34:14;;;;;;;9.13;7.70;;;2.90;99.90;;;;;;5071732;28;20234;-80
2022/04/04 10:36:55;;;;;;;9.27;8.27;;;2.90;99.90;;;;;;5089962;28;20222;-80
2022/04/04 10:39:33;;;;;;;8.47;7.67;;;2.90;99.90;;;;;;5071506;28;20289;-80
2022/04/04 10:42:00;;;;;;;10.77;8.17;;;2.90;99.90;;;;;;5071830;28;20223;-80
2022/04/04 10:44:50;;;;;;;8.80;7.47;;;2.90;99.90;;;;;;5081925;28;20222;-81
2022/04/04 10:47:21;;;;;;;9.23;7.67;;;2.90;99.90;;;;;;5083985;28;20253;-81
2022/04/04 10:49:48;;;;;;;9.93;8.27;;;2.80;99.90;;;;;;5071643;28;20597;-80
2022/04/04 10:52:19;;;;;;;11.17;9.97;;;2.90;99.90;;;;;;5071732;28;20215;-81
2022/04/04 10:54:46;;;;;;;10.87;8.57;;;2.90;99.90;;;;;;5072069;28;21009;-80
2022/04/04 10:57:17;;;;;;;11.80;8.50;;;3.00;99.90;;;;;;5071595;28;20219;-80
2022/04/04 10:59:46;;;;;;;9.13;8.23;;;2.90;99.90;;;;;;5072530;28;20226;-80
2022/04/04 11:02:18;;;;;;;10.00;7.73;;;2.90;99.90;;;;;;5072086;28;20223;-80
2022/04/04 11:07:41;;;;;;;10.30;8.13;;;2.90;99.90;;;;;;5089234;28;20265;-80
2022/04/04 11:10:10;;;;;;;9.43;8.43;;;2.90;99.90;;;;;;5070442;28;20576;-80
2022/04/04 11:12:56;;;;;;;9.20;8.20;;;2.90;99.90;;;;;;5072657;28;20384;-80
2022/04/04 11:15:42;;;;;;;8.40;7.60;;;2.90;99.90;;;;;;5089970;28;20230;-80
2022/04/04 11:18:11;;;;;;;9.03;7.63;;;2.90;99.90;;;;;;5089805;28;20248;-81
2022/04/04 11:20:48;;;;;;;10.90;8.33;;;2.90;99.90;;;;;;5083391;28;20288;-80
2022/04/04 11:23:15;;;;;;;9.30;7.87;;;3.00;99.90;;;;;;5071328;28;20222;-79
2022/04/04 11:25:51;;;;;;;9.17;7.87;;;3.10;99.90;;;;;;5072773;28;20240;-80
2022/04/04 11:28:20;;;;;;;8.97;8.07;;;3.00;99.90;;;;;;5090109;28;20317;-80
2022/04/04 11:30:47;;;;;;;8.87;7.97;;;3.10;99.90;;;;;;5073033;28;20226;-80
2022/04/04 11:33:22;;;;;;;8.93;7.87;;;3.10;99.90;;;;;;5071225;28;20219;-80
2022/04/04 11:35:50;;;;;;;9.77;7.83;;;3.10;99.90;;;;;;5072833;28;20229;-80
2022/04/04 11:38:19;;;;;;;8.80;7.83;;;3.10;99.90;;;;;;5072026;28;20295;-80
2022/04/04 11:40:52;;;;;;;8.07;7.27;;;3.20;99.90;;;;;;5072599;28;20250;-80
2022/04/04 11:43:21;;;;;;;9.10;7.37;;;3.20;99.90;;;;;;5071111;28;20224;-80
2022/04/04 11:45:49;;;;;;;8.20;7.40;;;3.20;99.90;;;;;;5090925;28;21044;-81
2022/04/04 11:48:23;;;;;;;7.40;6.70;;;3.20;99.90;;;;;;5091795;28;20220;-80
2022/04/04 11:50:56;;;;;;;7.70;6.97;;;3.30;99.90;;;;;;5094387;28;20238;-80
2022/04/04 11:53:25;;;;;;;8.43;7.33;;;3.30;99.90;;;;;;5075474;28;20265;-80
2022/04/04 11:56:00;;;;;;;8.20;6.73;;;3.30;99.90;;;;;;5077712;28;20234;-80
2022/04/04 11:58:27;;;;;;;7.83;7.03;;;3.40;99.90;;;;;;5075683;28;20237;-80
2022/04/04 12:01:04;;;;;;;8.70;7.53;;;3.40;99.90;;;;;;5093974;28;20226;-80
2022/04/04 12:03:39;;;;;;;8.70;7.20;;;3.40;99.90;;;;;;5075409;28;20235;-80
2022/04/04 12:06:07;;;;;;;9.57;7.63;;;3.40;99.90;;;;;;5075759;28;20225;-80
2022/04/04 12:08:35;;;;;;;9.20;8.00;;;3.40;99.90;;;;;;5075619;28;20306;-80
2022/04/04 12:11:02;;;;;;;7.60;6.90;;;3.50;99.90;;;;;;5093582;28;20694;-80
2022/04/04 12:13:29;;;;;;;7.83;7.03;;;3.50;99.90;;;;;;5074809;28;20301;-81
2022/04/04 12:15:56;;;;;;;7.47;6.77;;;3.50;99.90;;;;;;5094109;28;20228;-80
2022/04/04 12:18:25;;;;;;;7.97;6.33;;;3.50;99.90;;;;;;5074661;28;20241;-80
2022/04/04 12:20:55;;;;;;;7.93;6.87;;;3.50;99.90;;;;;;5075135;28;20229;-80
2022/04/04 12:26:10;;;;;;;8.13;7.23;;;3.60;99.90;;;;;;5080801;28;20231;-80
2022/04/04 12:28:39;;;;;;;7.80;7.00;;;3.60;99.90;;;;;;5076437;28;20216;-80
2022/04/04 12:31:14;;;;;;;8.77;7.00;;;3.60;99.90;;;;;;5092948;28;20241;-80
2022/04/04 12:33:41;;;;;;;7.90;7.10;;;3.60;99.90;;;;;;5093064;28;20237;-80
2022/04/04 12:36:10;;;;;;;7.80;7.00;;;3.70;99.90;;;;;;5073821;28;20307;-80
2022/04/04 12:38:38;;;;;;;8.67;7.33;;;3.60;99.90;;;;;;5071994;28;20650;-80
2022/04/04 12:41:11;;;;;;;8.10;7.30;;;3.70;99.90;;;;;;5074607;28;20248;-80
2022/04/04 12:43:39;;;;;;;7.50;6.80;;;3.70;99.90;;;;;;5074839;28;20235;-81
2022/04/04 12:46:07;;;;;;;8.17;7.37;;;3.70;99.90;;;;;;5092436;28;20230;-81
2022/04/04 12:48:36;;;;;;;9.00;7.17;;;3.70;99.90;;;;;;5092453;28;20226;-80
2022/04/04 12:51:04;;;;;;;7.30;6.60;;;3.70;99.90;;;;;;5074793;28;20644;-80
2022/04/04 12:53:48;;;;;;;7.43;6.73;;;3.80;99.90;;;;;;5073765;28;20237;-81
2022/04/04 12:56:15;;;;;;;7.13;6.43;;;3.80;99.90;;;;;;5081050;28;20224;-80
2022/04/04 12:58:42;;;;;;;7.47;6.53;;;3.80;99.90;;;;;;5092961;28;20228;-81
2022/04/04 13:01:14;;;;;;;7.80;6.33;;;3.80;99.90;;;;;;5091553;28;20629;-80
2022/04/04 13:03:48;;;;;;;6.80;6.20;;;3.80;99.90;;;;;;5074631;28;20223;-81
2022/04/04 13:06:16;;;;;;;7.47;6.17;;;3.90;99.90;;;;;;5073518;28;20664;-81
2022/04/04 13:08:53;;;;;;;9.83;6.33;;;3.90;99.90;;;;;;5074328;28;20222;-81